Time;durP1;ratioP1;P1;durP2;ratioP2;P2;SDS_P1;SDS_P2;PMS_P1;PMS_P2;Temp;Humidity;BMP_temperature;BMP_pressure;BME280_temperature;BME280_humidity;BME280_pressure;Samples;Min_cycle;Max_cycle;Signal;HPM_P1;HPM_P2
2021/06/30 00:01:37;;;;;;;4.88;1.83;;;14.20;85.50;;;;;;6094547;23;20045;-66
2021/06/30 00:04:04;;;;;;;15.98;2.47;;;14.20;85.60;;;;;;6092970;23;20010;-66
2021/06/30 00:06:31;;;;;;;5.45;1.30;;;14.20;85.70;;;;;;6094071;23;20371;-66
2021/06/30 00:08:57;;;;;;;7.60;1.70;;;14.20;85.90;;;;;;6092624;23;20018;-66
2021/06/30 00:11:26;;;;;;;4.38;1.10;;;14.20;86.00;;;;;;6093965;23;20072;-66
2021/06/30 00:13:53;;;;;;;5.88;0.70;;;14.10;86.10;;;;;;6093146;23;20009;-66
2021/06/30 00:16:20;;;;;;;5.15;2.70;;;14.20;86.10;;;;;;6093774;23;20007;-65
2021/06/30 00:18:48;;;;;;;3.95;1.00;;;14.10;86.70;;;;;;6093983;23;20447;-66
2021/06/30 00:21:14;;;;;;;2.40;0.88;;;14.20;86.10;;;;;;6093123;23;19990;-66
2021/06/30 00:23:42;;;;;;;2.13;0.95;;;14.10;85.90;;;;;;6093960;23;20006;-66
2021/06/30 00:26:09;;;;;;;4.82;0.82;;;14.20;86.60;;;;;;6092742;23;20002;-66
2021/06/30 00:28:35;;;;;;;4.53;1.02;;;14.10;85.80;;;;;;6093880;23;20014;-66
2021/06/30 00:31:02;;;;;;;4.97;0.95;;;14.10;85.80;;;;;;6093024;23;20005;-65
2021/06/30 00:33:28;;;;;;;3.80;1.15;;;14.10;85.70;;;;;;6093878;23;20014;-64
2021/06/30 00:35:54;;;;;;;4.25;1.15;;;14.10;85.60;;;;;;6093358;23;20002;-64
2021/06/30 00:38:21;;;;;;;4.20;0.70;;;14.10;85.50;;;;;;6093013;23;20014;-64
2021/06/30 00:40:47;;;;;;;3.97;0.80;;;14.10;85.50;;;;;;6093893;23;20038;-64
2021/06/30 00:43:14;;;;;;;4.28;1.15;;;14.10;85.40;;;;;;6092510;23;20362;-64
2021/06/30 00:45:41;;;;;;;4.20;0.73;;;14.10;85.40;;;;;;6093809;23;20085;-64
2021/06/30 00:48:07;;;;;;;4.47;0.90;;;14.10;85.40;;;;;;6092613;23;20013;-64
2021/06/30 00:50:34;;;;;;;3.55;0.98;;;14.10;85.40;;;;;;6093875;23;20007;-64
2021/06/30 00:53:00;;;;;;;4.25;1.10;;;14.10;85.50;;;;;;6092955;23;20034;-64
2021/06/30 00:55:27;;;;;;;2.83;0.68;;;14.10;85.50;;;;;;6093166;23;20009;-64
2021/06/30 00:57:53;;;;;;;1.40;0.63;;;14.10;85.60;;;;;;6093833;23;20002;-64
2021/06/30 01:00:20;;;;;;;2.58;0.60;;;14.10;85.60;;;;;;6092425;23;20078;-64
2021/06/30 01:02:46;;;;;;;4.38;0.95;;;14.10;85.70;;;;;;6094045;23;20003;-64
2021/06/30 01:05:15;;;;;;;4.88;1.50;;;14.10;85.70;;;;;;6092105;23;20077;-64
2021/06/30 01:07:41;;;;;;;6.35;1.55;;;14.20;85.80;;;;;;6093581;23;20462;-64
2021/06/30 01:10:08;;;;;;;2.75;0.65;;;14.10;85.80;;;;;;6092507;23;20462;-64
2021/06/30 01:12:35;;;;;;;6.72;1.90;;;14.10;85.70;;;;;;6093229;23;20344;-64
2021/06/30 01:15:09;;;;;;;3.60;1.02;;;14.10;85.80;;;;;;6093639;23;20029;-64
2021/06/30 01:17:36;;;;;;;5.18;0.90;;;14.10;85.80;;;;;;6092548;23;20005;-64
2021/06/30 01:20:05;;;;;;;2.83;0.95;;;14.10;85.80;;;;;;6093711;23;20017;-64
2021/06/30 01:22:32;;;;;;;2.65;0.90;;;14.20;85.90;;;;;;6090626;23;20020;-64
2021/06/30 01:24:58;;;;;;;4.55;1.15;;;14.10;85.80;;;;;;6093592;23;19998;-63
2021/06/30 01:27:33;;;;;;;2.92;1.30;;;14.10;85.80;;;;;;6092895;23;20721;-63
2021/06/30 01:29:59;;;;;;;2.45;1.15;;;14.10;85.80;;;;;;6093228;23;20125;-63
2021/06/30 01:32:26;;;;;;;3.88;1.05;;;14.10;85.90;;;;;;6093350;23;20014;-63
2021/06/30 01:34:52;;;;;;;3.97;1.00;;;14.10;86.00;;;;;;6092557;23;20030;-64
2021/06/30 01:37:19;;;;;;;2.60;0.80;;;14.10;86.10;;;;;;6093676;23;20493;-63
2021/06/30 01:39:45;;;;;;;5.05;0.75;;;14.10;86.20;;;;;;6092267;23;20030;-63
2021/06/30 01:42:12;;;;;;;4.32;0.70;;;14.10;86.30;;;;;;6093616;23;20010;-63
2021/06/30 01:44:38;;;;;;;2.40;0.90;;;14.10;86.40;;;;;;6092317;23;20339;-64
2021/06/30 01:47:05;;;;;;;3.97;0.95;;;14.10;86.50;;;;;;6093217;23;20010;-64
2021/06/30 01:49:31;;;;;;;2.38;1.10;;;14.10;86.50;;;;;;6093122;23;20009;-63
2021/06/30 01:51:58;;;;;;;3.78;1.33;;;14.10;86.50;;;;;;6092812;23;20034;-63
2021/06/30 01:54:24;;;;;;;4.57;1.15;;;14.10;86.60;;;;;;6093510;23;20348;-63
2021/06/30 01:56:51;;;;;;;6.32;1.70;;;14.10;86.60;;;;;;6092100;23;20004;-63
2021/06/30 01:59:17;;;;;;;6.93;1.27;;;14.10;86.60;;;;;;6093526;23;20006;-64
2021/06/30 02:01:44;;;;;;;7.78;2.42;;;14.10;86.70;;;;;;6092187;23;20362;-63
2021/06/30 02:04:11;;;;;;;5.82;1.60;;;14.10;86.60;;;;;;6093649;23;20501;-64
2021/06/30 02:06:42;;;;;;;4.93;1.17;;;14.10;86.90;;;;;;6092805;23;20010;-65
2021/06/30 02:09:13;;;;;;;5.50;1.55;;;14.10;86.60;;;;;;6092556;23;20018;-65
2021/06/30 02:11:41;;;;;;;3.30;1.48;;;14.10;86.60;;;;;;6093439;23;20490;-64
2021/06/30 02:14:08;;;;;;;2.63;1.00;;;14.10;86.60;;;;;;6092175;23;20070;-64
2021/06/30 02:16:35;;;;;;;5.28;1.23;;;14.10;86.60;;;;;;6094332;23;20002;-64
2021/06/30 02:19:06;;;;;;;6.85;1.48;;;14.10;86.60;;;;;;6092253;23;20010;-63
2021/06/30 02:21:34;;;;;;;3.80;1.58;;;14.10;86.60;;;;;;6095222;23;20006;-64
2021/06/30 02:24:01;;;;;;;6.82;1.65;;;14.00;86.50;;;;;;6094729;23;20013;-64
2021/06/30 02:26:28;;;;;;;6.82;1.92;;;14.00;86.50;;;;;;6094621;23;20024;-64
2021/06/30 02:28:56;;;;;;;6.93;1.67;;;14.00;86.40;;;;;;6095257;23;20006;-64
2021/06/30 02:31:23;;;;;;;2.67;0.88;;;14.00;86.40;;;;;;6093710;23;19998;-64
2021/06/30 02:33:51;;;;;;;3.38;0.98;;;14.00;86.40;;;;;;6095153;23;20029;-63
2021/06/30 02:36:17;;;;;;;5.20;1.40;;;14.00;86.40;;;;;;6093985;23;20462;-64
2021/06/30 02:38:44;;;;;;;7.78;1.58;;;14.00;86.40;;;;;;6095414;23;20494;-64
2021/06/30 02:41:11;;;;;;;5.38;2.30;;;14.00;86.40;;;;;;6094461;23;20077;-63
2021/06/30 02:43:38;;;;;;;3.45;0.90;;;14.00;86.50;;;;;;6094483;23;20003;-64
2021/06/30 02:46:04;;;;;;;2.40;0.70;;;14.00;86.50;;;;;;6095156;23;20077;-64
2021/06/30 02:48:31;;;;;;;7.45;1.50;;;14.00;86.60;;;;;;6092764;23;20449;-64
2021/06/30 02:50:58;;;;;;;4.57;0.73;;;14.00;86.60;;;;;;6093850;23;20359;-63
2021/06/30 02:53:25;;;;;;;2.95;0.93;;;14.00;86.70;;;;;;6093526;23;20014;-64
2021/06/30 02:55:51;;;;;;;4.30;0.98;;;14.00;86.70;;;;;;6094898;23;20090;-64
2021/06/30 02:58:18;;;;;;;4.70;1.08;;;14.00;86.80;;;;;;6093754;23;20003;-64
2021/06/30 03:00:44;;;;;;;2.63;0.75;;;14.00;86.80;;;;;;6094427;23;20013;-64
2021/06/30 03:03:11;;;;;;;1.58;1.00;;;14.00;86.80;;;;;;6094675;23;20003;-64
2021/06/30 03:05:37;;;;;;;2.75;1.05;;;14.00;86.80;;;;;;6093794;23;19994;-64
2021/06/30 03:08:04;;;;;;;2.75;1.42;;;14.00;86.80;;;;;;6094846;23;20061;-64
2021/06/30 03:10:31;;;;;;;2.58;0.88;;;14.00;86.80;;;;;;6093261;23;20034;-64
2021/06/30 03:12:57;;;;;;;4.97;0.85;;;14.00;86.80;;;;;;6094945;23;20082;-64
2021/06/30 03:15:23;;;;;;;2.45;1.00;;;14.00;86.60;;;;;;6093495;23;20025;-64
2021/06/30 03:17:50;;;;;;;4.60;1.60;;;14.00;86.70;;;;;;6094557;23;20665;-64
2021/06/30 03:20:17;;;;;;;3.70;1.55;;;14.00;86.60;;;;;;6092398;23;20145;-64
2021/06/30 03:22:44;;;;;;;5.30;1.27;;;14.00;87.30;;;;;;6093954;23;20052;-63
2021/06/30 03:25:13;;;;;;;4.65;1.27;;;14.00;86.60;;;;;;6094990;23;20370;-64
2021/06/30 03:27:41;;;;;;;2.80;0.95;;;14.00;86.60;;;;;;6092899;23;20011;-64
2021/06/30 03:30:10;;;;;;;4.93;1.30;;;14.00;86.50;;;;;;6094998;23;20003;-64
2021/06/30 03:32:37;;;;;;;8.85;1.60;;;14.00;86.50;;;;;;6093104;23;20209;-64
2021/06/30 03:35:05;;;;;;;4.70;1.23;;;13.90;86.30;;;;;;6094816;23;20467;-64
2021/06/30 03:37:32;;;;;;;5.20;1.63;;;13.90;86.30;;;;;;6093790;23;19998;-63
2021/06/30 03:39:58;;;;;;;2.42;1.10;;;13.90;86.30;;;;;;6093753;23;20002;-63
2021/06/30 03:42:25;;;;;;;5.60;2.10;;;13.90;86.30;;;;;;6094474;23;20081;-64
2021/06/30 03:44:52;;;;;;;6.68;1.02;;;13.90;86.30;;;;;;6093131;23;19999;-64
2021/06/30 03:47:19;;;;;;;1.92;0.80;;;13.90;86.20;;;;;;6094677;23;20014;-64
2021/06/30 03:49:46;;;;;;;3.53;0.60;;;13.90;86.10;;;;;;6093396;23;20745;-63
2021/06/30 03:52:12;;;;;;;3.95;0.90;;;13.90;86.00;;;;;;6094255;23;20056;-64
2021/06/30 03:54:39;;;;;;;8.15;2.15;;;13.90;86.00;;;;;;6093334;23;20022;-63
2021/06/30 03:57:05;;;;;;;4.32;1.10;;;13.80;85.90;;;;;;6093953;23;20013;-64
2021/06/30 03:59:32;;;;;;;3.35;1.42;;;13.90;85.90;;;;;;6094157;23;19998;-64
2021/06/30 04:01:58;;;;;;;2.75;1.20;;;13.90;85.90;;;;;;6093356;23;20288;-64
2021/06/30 04:04:25;;;;;;;4.07;1.27;;;13.80;85.80;;;;;;6093944;23;20005;-64
2021/06/30 04:06:52;;;;;;;4.05;1.17;;;13.80;85.70;;;;;;6092927;23;20282;-64
2021/06/30 04:09:18;;;;;;;0.73;0.40;;;13.80;85.70;;;;;;6094073;23;20034;-64
2021/06/30 04:11:45;;;;;;;2.95;0.52;;;13.80;85.70;;;;;;6093099;23;20054;-64
2021/06/30 04:14:11;;;;;;;2.55;0.90;;;13.80;85.70;;;;;;6094020;23;20009;-64
2021/06/30 04:16:38;;;;;;;1.95;1.60;;;13.80;85.70;;;;;;6093794;23;20074;-64
2021/06/30 04:19:04;;;;;;;2.95;0.60;;;13.80;85.60;;;;;;6093537;23;20396;-64
2021/06/30 04:21:31;;;;;;;1.75;0.43;;;13.80;85.70;;;;;;6094277;23;20005;-64
2021/06/30 04:23:58;;;;;;;5.15;0.85;;;13.80;85.70;;;;;;6092895;23;20006;-64
2021/06/30 04:26:24;;;;;;;3.38;0.93;;;13.80;85.70;;;;;;6094342;23;20030;-64
2021/06/30 04:28:51;;;;;;;5.38;0.80;;;13.80;85.70;;;;;;6092748;23;20002;-64
2021/06/30 04:31:18;;;;;;;5.03;1.20;;;13.80;85.70;;;;;;6093935;23;20006;-64
2021/06/30 04:33:45;;;;;;;0.73;0.38;;;13.80;85.70;;;;;;6093310;23;20023;-64
2021/06/30 04:36:11;;;;;;;3.22;0.63;;;13.80;85.70;;;;;;6093150;23;20502;-64
2021/06/30 04:38:37;;;;;;;4.50;1.25;;;13.80;85.80;;;;;;6093892;23;20052;-64
2021/06/30 04:41:04;;;;;;;1.83;0.98;;;13.70;85.70;;;;;;6091915;23;20006;-63
2021/06/30 04:43:30;;;;;;;2.47;0.68;;;13.80;85.90;;;;;;6093041;23;20089;-64
2021/06/30 04:45:57;;;;;;;2.67;0.70;;;13.80;85.90;;;;;;6092598;23;20029;-63
2021/06/30 04:48:23;;;;;;;5.25;1.15;;;13.70;85.90;;;;;;6093840;23;20028;-64
2021/06/30 04:50:50;;;;;;;5.35;0.90;;;13.80;86.00;;;;;;6093033;23;20090;-65
2021/06/30 04:53:16;;;;;;;1.15;0.60;;;13.80;86.10;;;;;;6093538;23;20017;-65
2021/06/30 04:55:43;;;;;;;4.28;0.88;;;13.80;86.10;;;;;;6093952;23;20002;-63
2021/06/30 04:58:10;;;;;;;3.13;0.75;;;13.80;86.10;;;;;;6093058;23;20001;-64
2021/06/30 05:01:16;;;;;;;1.50;0.82;;;13.80;86.10;;;;;;6091733;23;20002;-64
2021/06/30 05:04:22;;;;;;;1.27;0.50;;;13.70;85.90;;;;;;6091157;23;20003;-64
2021/06/30 05:07:28;;;;;;;3.75;0.70;;;13.70;85.80;;;;;;6091423;23;20370;-64
2021/06/30 05:10:34;;;;;;;4.78;1.00;;;13.70;85.60;;;;;;6092243;23;20020;-64
2021/06/30 05:13:00;;;;;;;3.03;1.05;;;13.70;85.40;;;;;;6091986;23;20011;-64
2021/06/30 05:15:27;;;;;;;1.38;0.80;;;13.70;85.30;;;;;;6091430;23;20006;-64
2021/06/30 05:17:54;;;;;;;6.32;1.40;;;13.70;85.20;;;;;;6092807;23;20014;-64
2021/06/30 05:20:20;;;;;;;2.90;0.50;;;13.70;85.10;;;;;;6091314;23;20008;-64
2021/06/30 05:22:47;;;;;;;3.30;0.80;;;13.70;85.00;;;;;;6092454;23;20008;-64
2021/06/30 05:25:14;;;;;;;2.63;0.95;;;13.70;84.90;;;;;;6091027;23;20330;-64
2021/06/30 05:27:41;;;;;;;2.70;1.20;;;13.70;84.90;;;;;;6092309;23;20808;-64
2021/06/30 05:30:08;;;;;;;3.20;1.58;;;13.60;84.80;;;;;;6091720;23;20081;-64
2021/06/30 05:32:35;;;;;;;1.85;0.77;;;13.70;84.70;;;;;;6091711;23;20042;-64
2021/06/30 05:35:01;;;;;;;2.47;2.00;;;13.60;84.80;;;;;;6092373;23;20081;-64
2021/06/30 05:37:28;;;;;;;3.67;0.90;;;13.60;84.80;;;;;;6091769;23;20003;-64
2021/06/30 05:39:54;;;;;;;1.50;0.73;;;13.60;84.80;;;;;;6093539;23;20013;-65
2021/06/30 05:42:21;;;;;;;5.50;1.15;;;13.60;84.80;;;;;;6092777;23;20041;-64
2021/06/30 05:44:47;;;;;;;5.60;1.77;;;13.60;84.80;;;;;;6093453;23;20002;-64
2021/06/30 05:47:14;;;;;;;2.65;0.85;;;13.60;84.80;;;;;;6092937;23;20081;-64
2021/06/30 05:49:40;;;;;;;2.20;1.20;;;13.60;84.90;;;;;;6092974;23;20006;-64
2021/06/30 05:52:07;;;;;;;4.72;0.98;;;13.70;85.00;;;;;;6094799;23;20105;-64
2021/06/30 05:54:33;;;;;;;5.10;1.63;;;13.70;85.00;;;;;;6094345;23;20012;-64
2021/06/30 05:57:00;;;;;;;4.38;1.23;;;13.60;85.00;;;;;;6095586;23;20003;-64
2021/06/30 05:59:26;;;;;;;5.63;2.55;;;13.60;85.10;;;;;;6094185;23;20003;-64
2021/06/30 06:01:53;;;;;;;6.93;1.40;;;13.70;85.20;;;;;;6096189;23;20003;-63
2021/06/30 06:04:19;;;;;;;4.20;1.65;;;13.70;85.30;;;;;;6094303;23;20410;-64
2021/06/30 06:06:45;;;;;;;1.58;0.70;;;13.70;85.30;;;;;;6095288;23;20002;-64
2021/06/30 06:09:12;;;;;;;1.42;0.73;;;13.70;85.30;;;;;;6094875;23;20010;-64
2021/06/30 06:11:38;;;;;;;5.97;0.93;;;13.70;85.30;;;;;;6094400;23;20007;-64
2021/06/30 06:14:05;;;;;;;3.05;1.17;;;13.70;85.30;;;;;;6095412;23;20006;-64
2021/06/30 06:16:31;;;;;;;2.60;0.80;;;13.70;85.30;;;;;;6094060;23;20009;-64
2021/06/30 06:18:58;;;;;;;4.82;1.70;;;13.70;85.30;;;;;;6095480;23;20336;-64
2021/06/30 06:21:27;;;;;;;4.15;0.80;;;13.70;85.30;;;;;;6093757;23;20457;-64
2021/06/30 06:23:53;;;;;;;2.95;0.93;;;13.70;85.30;;;;;;6095227;23;20602;-64
2021/06/30 06:26:20;;;;;;;1.45;0.30;;;13.70;85.20;;;;;;6094605;23;20327;-64
2021/06/30 06:28:48;;;;;;;0.88;0.70;;;13.70;85.20;;;;;;6094487;23;20007;-64
2021/06/30 06:31:17;;;;;;;6.20;1.10;;;13.70;85.30;;;;;;6095551;23;20486;-64
2021/06/30 06:33:43;;;;;;;2.25;0.85;;;13.70;85.30;;;;;;6093794;23;20010;-64
2021/06/30 06:36:10;;;;;;;6.00;2.00;;;13.70;85.30;;;;;;6095210;23;20339;-64
2021/06/30 06:38:38;;;;;;;3.88;0.80;;;13.70;85.40;;;;;;6093948;23;20002;-64
2021/06/30 06:41:06;;;;;;;2.75;0.60;;;13.70;85.50;;;;;;6095430;23;20029;-64
2021/06/30 06:43:34;;;;;;;2.85;1.08;;;13.70;85.50;;;;;;6094230;23;20002;-64
2021/06/30 06:46:01;;;;;;;8.77;1.25;;;13.70;85.60;;;;;;6094608;23;20446;-64
2021/06/30 06:48:28;;;;;;;3.08;0.95;;;13.70;85.60;;;;;;6095063;23;19998;-64
2021/06/30 06:50:55;;;;;;;2.03;1.27;;;13.70;85.70;;;;;;6094119;23;20134;-64
2021/06/30 06:53:22;;;;;;;3.13;0.90;;;13.70;85.90;;;;;;6094763;23;20006;-64
2021/06/30 06:55:50;;;;;;;3.67;1.60;;;13.70;85.90;;;;;;6093900;23;20359;-64
2021/06/30 06:58:16;;;;;;;4.93;1.05;;;13.70;86.00;;;;;;6094957;23;20082;-64
2021/06/30 07:00:43;;;;;;;2.95;0.85;;;13.80;86.20;;;;;;6094613;23;20311;-64
2021/06/30 07:03:09;;;;;;;3.65;1.10;;;13.70;86.20;;;;;;6093993;23;20053;-64
2021/06/30 07:05:36;;;;;;;2.40;0.55;;;13.80;86.40;;;;;;6094544;23;20010;-64
2021/06/30 07:08:02;;;;;;;2.78;1.20;;;13.80;86.50;;;;;;6093949;23;20006;-65
2021/06/30 07:10:29;;;;;;;3.42;0.60;;;13.80;86.60;;;;;;6094645;23;20167;-65
2021/06/30 07:12:55;;;;;;;3.88;0.60;;;13.80;86.70;;;;;;6093688;23;20018;-65
2021/06/30 07:15:21;;;;;;;2.85;0.70;;;13.80;86.80;;;;;;6094761;23;20069;-65
2021/06/30 07:17:48;;;;;;;1.48;0.75;;;13.90;87.00;;;;;;6093442;23;20062;-64
2021/06/30 07:20:14;;;;;;;3.47;0.93;;;13.90;87.00;;;;;;6094742;23;20037;-65
2021/06/30 07:22:41;;;;;;;3.47;0.77;;;13.90;87.10;;;;;;6094169;23;20449;-64
2021/06/30 07:25:08;;;;;;;6.22;0.90;;;14.00;87.20;;;;;;6093974;23;20003;-65
2021/06/30 07:27:34;;;;;;;2.90;0.95;;;14.00;87.30;;;;;;6094723;23;20002;-65
2021/06/30 07:30:01;;;;;;;3.78;0.90;;;14.00;87.40;;;;;;6093474;23;19998;-65
2021/06/30 07:32:28;;;;;;;3.63;0.60;;;14.00;87.50;;;;;;6094716;23;20010;-65
2021/06/30 07:34:54;;;;;;;2.53;0.80;;;14.00;87.60;;;;;;6093313;23;20010;-65
2021/06/30 07:37:20;;;;;;;6.20;1.20;;;14.10;87.80;;;;;;6094480;23;19995;-65
2021/06/30 07:39:47;;;;;;;1.65;0.63;;;14.10;87.80;;;;;;6093674;23;20002;-65
2021/06/30 07:42:13;;;;;;;4.90;0.98;;;14.10;87.90;;;;;;6094349;23;20010;-65
2021/06/30 07:44:40;;;;;;;5.45;1.20;;;14.10;88.00;;;;;;6094217;23;20008;-65
2021/06/30 07:47:10;;;;;;;4.50;0.73;;;14.10;88.00;;;;;;6093318;23;20367;-65
2021/06/30 07:49:37;;;;;;;4.60;1.02;;;14.20;88.10;;;;;;6094730;23;19998;-65
2021/06/30 07:52:04;;;;;;;5.03;1.25;;;14.20;88.10;;;;;;6093202;23;20342;-65
2021/06/30 07:54:33;;;;;;;6.90;1.00;;;14.20;88.10;;;;;;6094616;23;20006;-65
2021/06/30 07:57:00;;;;;;;3.33;0.73;;;14.20;88.20;;;;;;6093329;23;20074;-65
2021/06/30 07:59:26;;;;;;;3.05;0.95;;;14.20;88.30;;;;;;6094081;23;20061;-65
2021/06/30 08:01:53;;;;;;;3.95;1.63;;;14.20;88.30;;;;;;6094238;23;20081;-65
2021/06/30 08:04:19;;;;;;;3.38;1.23;;;14.20;88.40;;;;;;6093274;23;20490;-65
2021/06/30 08:06:46;;;;;;;2.22;0.80;;;14.20;88.40;;;;;;6094657;23;20002;-65
2021/06/30 08:09:12;;;;;;;4.50;0.95;;;14.20;88.40;;;;;;6092827;23;20431;-65
2021/06/30 08:11:39;;;;;;;3.50;0.80;;;14.20;88.50;;;;;;6094065;23;20372;-65
2021/06/30 08:14:05;;;;;;;3.38;0.90;;;14.20;88.50;;;;;;6092725;23;20025;-65
2021/06/30 08:16:32;;;;;;;4.53;0.85;;;14.20;88.50;;;;;;6094222;23;20402;-66
2021/06/30 08:18:58;;;;;;;4.53;0.55;;;14.30;88.60;;;;;;6093995;23;20086;-65
2021/06/30 08:21:25;;;;;;;1.73;0.90;;;14.20;88.60;;;;;;6093658;23;19998;-65
2021/06/30 08:23:52;;;;;;;2.90;0.77;;;14.30;88.70;;;;;;6094216;23;20037;-66
2021/06/30 08:26:18;;;;;;;5.25;1.67;;;14.30;88.70;;;;;;6093088;23;20045;-65
2021/06/30 08:28:46;;;;;;;4.65;1.15;;;14.30;88.70;;;;;;6094142;23;20073;-65
2021/06/30 08:31:13;;;;;;;4.15;1.02;;;14.30;88.80;;;;;;6092785;23;20012;-65
2021/06/30 08:33:39;;;;;;;4.85;0.95;;;14.30;88.80;;;;;;6094135;23;20026;-65
2021/06/30 08:36:06;;;;;;;5.50;0.93;;;14.30;88.90;;;;;;6093177;23;20002;-65
2021/06/30 08:38:32;;;;;;;1.88;0.90;;;14.30;88.90;;;;;;6093501;23;20002;-65
2021/06/30 08:41:00;;;;;;;2.95;1.17;;;14.30;89.00;;;;;;6093913;23;20061;-65
2021/06/30 08:43:27;;;;;;;4.65;1.10;;;14.40;89.10;;;;;;6092729;23;20006;-65
2021/06/30 08:45:54;;;;;;;4.15;1.00;;;14.40;89.10;;;;;;6094064;23;19998;-65
2021/06/30 08:48:21;;;;;;;5.25;1.02;;;14.40;89.10;;;;;;6092615;23;20025;-65
2021/06/30 08:50:50;;;;;;;3.10;0.63;;;14.40;89.20;;;;;;6093974;23;19999;-65
2021/06/30 08:53:20;;;;;;;3.65;1.15;;;14.40;89.20;;;;;;6092892;23;20342;-65
2021/06/30 08:55:47;;;;;;;4.68;0.90;;;14.50;89.30;;;;;;6093469;23;19999;-64
2021/06/30 08:58:14;;;;;;;2.08;0.63;;;14.50;89.40;;;;;;6093635;23;20006;-64
2021/06/30 09:00:43;;;;;;;1.75;0.82;;;14.50;89.50;;;;;;6092933;23;20006;-65
2021/06/30 09:03:17;;;;;;;4.72;1.15;;;14.50;89.50;;;;;;6093957;23;20054;-64
2021/06/30 09:08:21;;;;;;;1.88;1.30;;;14.60;89.70;;;;;;6094229;23;20339;-65
2021/06/30 09:10:48;;;;;;;2.65;0.80;;;14.60;89.70;;;;;;6093194;23;20077;-64
2021/06/30 09:13:23;;;;;;;4.13;1.05;;;14.60;89.70;;;;;;6093433;23;20036;-66
2021/06/30 09:16:03;;;;;;;3.30;0.88;;;14.60;89.70;;;;;;6094042;23;20003;-64
2021/06/30 09:18:34;;;;;;;4.72;1.92;;;14.60;89.70;;;;;;6092480;23;20006;-64
2021/06/30 09:21:24;;;;;;;2.50;0.98;;;14.60;89.80;;;;;;6093977;23;20009;-64
2021/06/30 09:24:00;;;;;;;8.32;1.58;;;14.60;89.80;;;;;;6093201;23;20030;-63
2021/06/30 09:26:32;;;;;;;6.18;1.30;;;14.70;89.80;;;;;;6092640;23;20010;-64
2021/06/30 09:29:05;;;;;;;5.47;1.20;;;14.60;89.80;;;;;;6093657;23;20010;-65
2021/06/30 09:31:32;;;;;;;3.70;1.52;;;14.70;89.80;;;;;;6092340;23;20453;-66
2021/06/30 09:33:59;;;;;;;7.97;1.52;;;14.70;89.90;;;;;;6093693;23;20021;-65
2021/06/30 09:36:33;;;;;;;6.95;1.98;;;14.70;89.90;;;;;;6092806;23;20459;-64
2021/06/30 09:39:10;;;;;;;6.03;1.77;;;14.70;89.90;;;;;;6093473;23;20006;-65
2021/06/30 09:41:43;;;;;;;6.22;2.13;;;14.70;90.00;;;;;;6093627;23;20124;-65
2021/06/30 09:44:12;;;;;;;5.75;1.50;;;14.70;90.00;;;;;;6092547;23;20003;-66
2021/06/30 09:46:43;;;;;;;9.52;2.83;;;14.60;90.00;;;;;;6093857;23;20002;-66
2021/06/30 09:49:12;;;;;;;6.40;2.33;;;14.70;90.00;;;;;;6092510;23;20007;-65
2021/06/30 09:51:40;;;;;;;7.45;1.60;;;14.60;90.00;;;;;;6093530;23;20034;-66
2021/06/30 09:54:15;;;;;;;7.03;1.85;;;14.60;90.00;;;;;;6093051;23;20017;-66
2021/06/30 09:56:58;;;;;;;7.70;3.10;;;14.60;90.00;;;;;;6092741;23;20006;-64
2021/06/30 09:59:26;;;;;;;3.95;1.75;;;14.60;90.00;;;;;;6093608;23;20007;-65
2021/06/30 10:01:59;;;;;;;6.50;1.67;;;14.60;90.00;;;;;;6092473;23;20449;-65
2021/06/30 10:04:31;;;;;;;7.10;2.22;;;14.60;90.00;;;;;;6093703;23;20003;-65
2021/06/30 10:07:12;;;;;;;4.38;1.25;;;14.60;90.10;;;;;;6092827;23;20009;-65
2021/06/30 10:09:41;;;;;;;4.10;1.23;;;14.60;90.10;;;;;;6092642;23;20088;-65
2021/06/30 10:12:12;;;;;;;7.38;2.00;;;14.70;90.20;;;;;;6093471;23;20331;-66
2021/06/30 10:14:41;;;;;;;3.83;1.63;;;14.70;90.20;;;;;;6092880;23;20012;-66
2021/06/30 10:17:09;;;;;;;4.95;1.70;;;14.70;90.30;;;;;;6093675;23;20494;-66
2021/06/30 10:19:37;;;;;;;10.75;1.88;;;14.80;90.40;;;;;;6092505;23;20138;-66
2021/06/30 10:22:06;;;;;;;4.65;1.33;;;14.80;90.50;;;;;;6093485;23;20331;-66
2021/06/30 10:24:33;;;;;;;2.53;1.58;;;14.90;90.50;;;;;;6092957;23;20438;-66
2021/06/30 10:27:00;;;;;;;3.22;1.23;;;15.00;90.50;;;;;;6092710;23;19995;-65
2021/06/30 10:29:32;;;;;;;3.58;1.10;;;15.10;90.50;;;;;;6093396;23;20009;-65
2021/06/30 10:32:01;;;;;;;4.13;1.30;;;15.20;90.40;;;;;;6092251;23;20054;-65
2021/06/30 10:34:54;;;;;;;6.80;1.50;;;15.20;90.40;;;;;;6091673;23;20342;-65
2021/06/30 10:37:26;;;;;;;5.25;1.77;;;15.20;90.30;;;;;;6093527;23;20010;-65
2021/06/30 10:40:14;;;;;;;5.18;1.20;;;15.30;90.30;;;;;;6094435;23;20441;-65
2021/06/30 10:42:48;;;;;;;3.53;1.35;;;15.30;90.20;;;;;;6095088;23;20006;-65
2021/06/30 10:45:17;;;;;;;4.03;1.25;;;15.30;90.20;;;;;;6093934;23;20013;-65
2021/06/30 10:47:56;;;;;;;7.97;1.48;;;15.40;90.10;;;;;;6095131;23;20017;-65
2021/06/30 10:50:36;;;;;;;5.22;1.00;;;15.40;90.10;;;;;;6094425;23;20029;-65
2021/06/30 10:53:06;;;;;;;2.17;0.73;;;15.40;90.10;;;;;;6094149;23;20015;-65
2021/06/30 10:58:14;;;;;;;5.70;1.55;;;15.40;90.00;;;;;;6094323;23;20097;-65
2021/06/30 11:01:04;;;;;;;2.70;1.00;;;15.50;89.90;;;;;;6095064;23;20450;-65
2021/06/30 11:03:37;;;;;;;1.85;1.10;;;15.50;90.00;;;;;;6094737;23;19998;-65
2021/06/30 11:06:10;;;;;;;3.03;0.95;;;15.50;90.00;;;;;;6094020;23;20074;-65
2021/06/30 11:08:56;;;;;;;5.25;1.17;;;15.50;90.00;;;;;;6094679;23;20061;-65
2021/06/30 11:11:34;;;;;;;6.07;1.10;;;15.60;90.10;;;;;;6093577;23;20053;-65
2021/06/30 11:14:15;;;;;;;3.17;1.20;;;15.70;90.20;;;;;;6094713;23;20505;-65
2021/06/30 11:16:48;;;;;;;4.13;2.00;;;15.70;90.00;;;;;;6094647;23;20009;-65
2021/06/30 11:19:18;;;;;;;3.75;1.63;;;15.70;89.60;;;;;;6093586;23;20048;-65
2021/06/30 11:22:04;;;;;;;5.15;0.95;;;15.80;89.30;;;;;;6094727;23;20010;-65
2021/06/30 11:24:34;;;;;;;1.00;0.57;;;15.80;89.10;;;;;;6093682;23;20002;-65
2021/06/30 11:27:32;;;;;;;2.45;0.90;;;15.80;88.90;;;;;;6094604;23;20006;-65
2021/06/30 11:30:07;;;;;;;2.83;1.20;;;15.80;88.70;;;;;;6084908;23;20394;-65
2021/06/30 11:35:09;;;;;;;4.90;1.42;;;15.90;88.30;;;;;;6094671;23;20015;-65
2021/06/30 11:37:47;;;;;;;4.25;0.80;;;15.90;88.00;;;;;;6093289;23;19999;-65
2021/06/30 11:40:28;;;;;;;2.80;0.70;;;16.00;87.60;;;;;;6094479;23;20029;-65
2021/06/30 11:42:57;;;;;;;2.78;0.82;;;16.00;87.40;;;;;;6094622;23;20007;-65
2021/06/30 11:45:33;;;;;;;1.85;0.80;;;16.00;87.40;;;;;;6093232;23;20335;-65
2021/06/30 11:48:03;;;;;;;5.07;1.75;;;16.10;87.20;;;;;;6094241;23;20002;-65
2021/06/30 11:50:43;;;;;;;2.80;1.55;;;16.10;86.80;;;;;;6093072;23;20009;-66
2021/06/30 11:53:10;;;;;;;4.63;1.67;;;16.00;86.40;;;;;;6093940;23;20080;-65
2021/06/30 11:55:39;;;;;;;6.05;2.45;;;16.10;86.10;;;;;;6094176;23;20002;-65
2021/06/30 11:58:06;;;;;;;4.13;0.85;;;16.00;85.80;;;;;;6091557;23;20442;-65
2021/06/30 12:00:38;;;;;;;3.80;1.05;;;16.00;85.70;;;;;;6094522;23;20029;-65
2021/06/30 12:03:05;;;;;;;6.65;1.50;;;16.10;85.70;;;;;;6093382;23;20006;-65
2021/06/30 12:05:35;;;;;;;5.60;1.15;;;16.20;85.70;;;;;;6094087;23;20002;-65
2021/06/30 12:08:03;;;;;;;8.85;1.25;;;16.20;85.50;;;;;;6093729;23;19998;-65
2021/06/30 12:10:31;;;;;;;6.45;1.38;;;16.30;84.70;;;;;;6093929;23;20018;-65
2021/06/30 12:13:00;;;;;;;9.70;1.60;;;16.40;82.60;;;;;;6094081;23;20363;-65
2021/06/30 12:15:28;;;;;;;6.25;1.48;;;16.40;81.60;;;;;;6093048;23;20494;-65
2021/06/30 12:17:59;;;;;;;2.78;1.05;;;16.40;80.90;;;;;;6094677;23;20077;-65
2021/06/30 12:20:28;;;;;;;4.47;1.38;;;16.40;80.80;;;;;;6093197;23;20006;-65
2021/06/30 12:22:56;;;;;;;3.67;1.17;;;16.50;80.70;;;;;;6094236;23;20124;-65
2021/06/30 12:25:25;;;;;;;4.47;1.10;;;16.60;80.20;;;;;;6093188;23;20002;-65
2021/06/30 12:27:56;;;;;;;2.75;0.70;;;16.60;80.00;;;;;;6093717;23;20003;-65
2021/06/30 12:30:26;;;;;;;1.55;0.52;;;16.70;80.00;;;;;;6094439;23;20323;-65
2021/06/30 12:32:58;;;;;;;5.15;0.75;;;16.70;79.80;;;;;;6092662;23;20046;-65
2021/06/30 12:35:34;;;;;;;3.97;1.17;;;16.60;79.80;;;;;;6094035;23;20081;-65
2021/06/30 12:38:14;;;;;;;6.35;1.30;;;16.70;80.10;;;;;;6092791;23;20002;-65
2021/06/30 12:40:41;;;;;;;4.85;2.28;;;16.70;80.00;;;;;;6093779;23;20383;-65
2021/06/30 12:43:16;;;;;;;3.25;1.15;;;16.80;80.00;;;;;;6093651;23;20009;-64
2021/06/30 12:45:47;;;;;;;5.40;1.15;;;16.90;79.80;;;;;;6092937;23;19998;-64
2021/06/30 12:48:18;;;;;;;8.27;1.33;;;16.90;79.50;;;;;;6093889;23;20003;-65
2021/06/30 12:50:53;;;;;;;3.22;1.45;;;16.90;79.10;;;;;;6092960;23;20003;-64
2021/06/30 12:53:25;;;;;;;7.45;1.50;;;16.90;78.80;;;;;;6094069;23;20172;-64
2021/06/30 12:55:57;;;;;;;7.88;1.02;;;16.90;78.80;;;;;;6093351;23;20029;-65
2021/06/30 12:58:36;;;;;;;2.83;0.70;;;16.90;79.00;;;;;;6093187;23;20006;-65
2021/06/30 13:01:04;;;;;;;5.25;2.00;;;16.90;79.70;;;;;;6093833;23;20022;-65
2021/06/30 13:03:33;;;;;;;5.93;1.38;;;16.90;79.20;;;;;;6092785;23;20003;-65
2021/06/30 13:06:19;;;;;;;2.33;1.33;;;16.90;79.50;;;;;;6093844;23;20025;-65